Time;durP1;ratioP1;P1;durP2;ratioP2;P2;SDS_P1;SDS_P2;PMS_P1;PMS_P2;Temp;Humidity;BMP_temperature;BMP_pressure;BME280_temperature;BME280_humidity;BME280_pressure;Samples;Min_cycle;Max_cycle;Signal;HPM_P1;HPM_P2
2022/05/27 00:02:01;;;;;;;3.10;2.02;;;;;;;15.34;59.08;99076.09;1707002;84;21037;-41
2022/05/27 00:04:29;;;;;;;5.40;1.92;;;;;;;15.35;59.10;99066.69;1707347;84;21041;-41
2022/05/27 00:06:55;;;;;;;3.20;2.15;;;;;;;15.35;58.99;99077.62;1707238;84;21118;-41
2022/05/27 00:09:23;;;;;;;3.10;2.10;;;;;;;15.35;58.86;99075.66;1707292;84;21510;-41
2022/05/27 00:11:49;;;;;;;4.37;2.10;;;;;;;15.38;59.12;99074.11;1707137;84;21012;-41
2022/05/27 00:14:16;;;;;;;3.30;2.33;;;;;;;15.39;59.27;99084.65;1707095;84;21485;-41
2022/05/27 00:16:43;;;;;;;4.25;1.87;;;;;;;15.44;59.23;99082.08;1707114;84;21395;-42
2022/05/27 00:19:10;;;;;;;3.83;1.77;;;;;;;15.51;58.97;99081.48;1707204;84;21088;-41
2022/05/27 00:21:37;;;;;;;2.50;2.20;;;;;;;15.52;58.88;99085.77;1707247;84;21031;-41
2022/05/27 00:24:05;;;;;;;3.80;2.00;;;;;;;15.54;59.02;99090.84;1707192;84;21008;-41
2022/05/27 00:26:32;;;;;;;6.33;2.33;;;;;;;15.53;59.17;99088.70;1707418;84;21044;-41
2022/05/27 00:28:59;;;;;;;4.62;2.25;;;;;;;15.51;59.34;99094.36;1707129;84;21029;-41
2022/05/27 00:31:26;;;;;;;4.17;2.30;;;;;;;15.47;59.41;99101.18;1707308;84;21247;-41
2022/05/27 00:33:53;;;;;;;3.30;2.15;;;;;;;15.45;59.67;99100.01;1707190;84;21004;-41
2022/05/27 00:36:19;;;;;;;6.72;2.15;;;;;;;15.43;59.87;99107.26;1707419;84;21088;-41
2022/05/27 00:38:46;;;;;;;3.67;2.08;;;;;;;15.42;60.01;99102.97;1709010;83;21088;-41
2022/05/27 00:41:13;;;;;;;6.62;1.95;;;;;;;15.42;60.01;99109.02;1714942;83;21071;-41
2022/05/27 00:43:42;;;;;;;7.33;2.30;;;;;;;15.42;60.07;99104.33;1714996;83;23124;-41
2022/05/27 00:46:18;;;;;;;4.12;1.95;;;;;;;15.44;60.39;99105.30;1715231;83;21016;-41
2022/05/27 00:48:48;;;;;;;4.90;1.72;;;;;;;15.49;60.05;99111.11;1714805;83;21072;-41
2022/05/27 00:51:25;;;;;;;4.37;1.98;;;;;;;15.52;59.96;99109.58;1715338;83;21008;-41
2022/05/27 00:53:59;;;;;;;4.97;2.02;;;;;;;15.51;59.78;99113.48;1750908;81;21021;-41
2022/05/27 00:56:31;;;;;;;4.37;2.10;;;;;;;15.49;59.95;99113.84;1715017;83;21147;-41
2022/05/27 00:59:05;;;;;;;3.22;2.00;;;;;;;15.48;60.06;99112.89;1714858;83;21040;-41
2022/05/27 01:01:31;;;;;;;3.62;2.02;;;;;;;15.47;60.05;99116.80;1715066;83;21012;-41
2022/05/27 01:03:58;;;;;;;3.98;2.22;;;;;;;15.44;60.14;99109.41;1714687;83;21538;-41
2022/05/27 01:06:25;;;;;;;3.15;1.65;;;;;;;15.43;60.18;99118.19;1714844;83;21028;-41
2022/05/27 01:08:51;;;;;;;3.70;1.92;;;;;;;15.42;60.42;99119.94;1714639;83;23097;-41
2022/05/27 01:11:26;;;;;;;5.47;2.27;;;;;;;15.39;60.57;99122.11;1714555;83;20973;-41
2022/05/27 01:14:33;;;;;;;2.45;1.87;;;;;;;15.40;60.37;99119.55;1714293;83;21000;-41
2022/05/27 01:17:06;;;;;;;3.27;2.00;;;;;;;15.42;60.39;99119.94;1714673;83;21028;-41
2022/05/27 01:20:21;;;;;;;24.63;2.27;;;;;;;15.38;60.51;99117.23;1751076;82;21024;-41
2022/05/27 01:23:24;;;;;;;3.75;1.75;;;;;;;15.38;60.70;99126.01;1750942;82;21155;-41
2022/05/27 01:26:17;;;;;;;4.55;2.10;;;;;;;15.31;60.73;99114.52;1750862;82;21511;-41
2022/05/27 01:29:23;;;;;;;5.85;2.10;;;;;;;15.28;61.20;99110.44;1750917;82;21021;-41
2022/05/27 01:32:10;;;;;;;3.80;2.08;;;;;;;15.22;61.27;99113.58;1716110;81;21606;-41
2022/05/27 01:35:01;;;;;;;6.40;2.00;;;;;;;15.19;61.38;99110.88;1750893;82;21543;-41
2022/05/27 01:37:57;;;;;;;6.53;2.00;;;;;;;15.14;61.42;99106.60;1715019;83;21037;-41
2022/05/27 01:40:35;;;;;;;4.08;1.75;;;;;;;15.14;61.59;99109.33;1714438;83;21021;-41
2022/05/27 01:43:21;;;;;;;2.60;1.90;;;;;;;15.18;61.66;99114.19;1714422;83;21542;-41
2022/05/27 01:46:08;;;;;;;4.58;1.82;;;;;;;15.19;61.61;99115.75;1715020;83;21506;-41
2022/05/27 01:48:58;;;;;;;3.95;1.85;;;;;;;15.16;61.67;99123.34;1714817;83;21025;-41
2022/05/27 01:51:58;;;;;;;3.52;2.15;;;;;;;15.12;61.87;99117.13;1714678;83;23166;-41
2022/05/27 01:54:35;;;;;;;4.53;2.25;;;;;;;15.09;62.11;99125.34;1712877;83;20992;-41
2022/05/27 01:57:13;;;;;;;4.62;2.17;;;;;;;15.02;62.47;99118.52;1714742;83;21483;-41
2022/05/27 01:59:58;;;;;;;3.22;1.60;;;;;;;15.02;62.51;99128.86;1714729;83;21037;-41
2022/05/27 02:02:27;;;;;;;5.97;1.70;;;;;;;15.07;62.55;99128.45;1714858;83;21001;-41
2022/05/27 02:05:05;;;;;;;3.35;1.77;;;;;;;15.07;62.45;99132.55;1715120;83;21814;-41
2022/05/27 02:07:37;;;;;;;9.88;1.65;;;;;;;15.06;62.52;99137.03;1750928;81;21512;-41
2022/05/27 02:10:09;;;;;;;2.35;1.70;;;;;;;15.03;62.84;99139.19;1714944;83;21526;-41
2022/05/27 02:12:49;;;;;;;5.80;2.02;;;;;;;15.01;62.86;99136.06;1715001;83;21028;-41
2022/05/27 02:15:21;;;;;;;2.15;1.62;;;;;;;14.98;62.91;99145.84;1732155;82;21556;-41
2022/05/27 02:18:02;;;;;;;7.05;1.98;;;;;;;14.96;62.94;99149.53;1739595;82;21241;-41
2022/05/27 02:20:34;;;;;;;3.52;1.85;;;;;;;14.98;63.27;99158.12;1751470;82;20969;-41
2022/05/27 02:23:08;;;;;;;4.03;1.82;;;;;;;15.02;63.26;99154.01;1751100;82;21017;-41
2022/05/27 02:25:38;;;;;;;3.52;1.70;;;;;;;15.01;63.19;99153.23;1714807;83;21542;-41
2022/05/27 02:28:29;;;;;;;4.62;1.80;;;;;;;15.00;63.23;99156.38;1715053;83;21016;-41
2022/05/27 02:31:00;;;;;;;5.80;1.98;;;;;;;14.97;63.24;99151.09;1714982;83;21146;-41
2022/05/27 02:36:29;;;;;;;5.80;1.80;;;;;;;14.92;63.50;99148.77;1714709;83;20921;-41
2022/05/27 02:38:56;;;;;;;4.30;1.72;;;;;;;14.91;63.58;99147.20;1714718;83;21527;-41
2022/05/27 02:41:40;;;;;;;3.12;1.70;;;;;;;14.94;63.62;99150.53;1714785;83;21044;-41
2022/05/27 02:44:15;;;;;;;3.95;1.80;;;;;;;14.97;63.46;99149.73;1742905;82;21248;-41
2022/05/27 02:47:04;;;;;;;4.10;1.65;;;;;;;14.99;63.68;99147.40;1742491;82;21045;-41
2022/05/27 02:49:47;;;;;;;;;;;;;;;14.99;63.65;99154.22;1745181;82;21040;-42
2022/05/27 02:52:50;;;;;;;5.55;1.77;;;;;;;14.98;63.72;99160.06;1742416;81;21550;-42
2022/05/27 02:55:24;;;;;;;7.33;1.47;;;;;;;14.89;64.02;99160.48;1742385;82;21084;-42
2022/05/27 02:57:52;;;;;;;4.65;1.52;;;;;;;14.90;64.09;99166.72;1742613;82;21230;-42
2022/05/27 03:00:23;;;;;;;3.22;1.85;;;;;;;14.94;64.04;99164.76;1742917;82;20998;-42
2022/05/27 03:02:50;;;;;;;3.80;1.42;;;;;;;15.00;63.99;99166.70;1742692;82;21027;-42
2022/05/27 03:05:19;;;;;;;4.78;1.55;;;;;;;15.04;63.81;99172.16;1742703;82;20950;-42
2022/05/27 03:08:19;;;;;;;8.88;1.90;;;;;;;15.06;63.84;99180.71;1742698;82;21033;-42
2022/05/27 03:11:16;;;;;;;5.30;1.90;;;;;;;15.06;63.86;99186.95;1742815;82;23192;-42
2022/05/27 03:14:06;;;;;;;1.90;1.60;;;;;;;15.05;63.98;99186.00;1742879;82;21476;-42
2022/05/27 03:16:59;;;;;;;2.40;1.55;;;;;;;15.02;63.89;99183.45;1742040;82;21004;-42
2022/05/27 03:19:48;;;;;;;1.98;1.50;;;;;;;15.00;63.88;99185.81;1738515;82;21013;-42
2022/05/27 03:23:00;;;;;;;3.33;1.50;;;;;;;15.00;63.99;99187.19;1742610;82;21033;-42
2022/05/27 03:26:12;;;;;;;4.10;1.62;;;;;;;15.01;63.79;99185.98;1742670;82;21952;-42
2022/05/27 03:28:48;;;;;;;3.27;1.72;;;;;;;15.00;64.00;99182.30;1742192;82;21486;-42
2022/05/27 03:31:35;;;;;;;2.85;1.60;;;;;;;14.97;63.83;99177.61;1742806;82;20926;-42
2022/05/27 03:34:25;;;;;;;1.40;1.30;;;;;;;14.97;64.10;99179.76;1742344;82;21523;-42
2022/05/27 03:37:00;;;;;;;2.42;1.50;;;;;;;15.01;63.99;99176.43;1742929;82;21041;-42
2022/05/27 03:39:50;;;;;;;2.65;1.40;;;;;;;15.06;63.91;99174.66;1743132;81;21157;-42
2022/05/27 03:42:19;;;;;;;2.30;1.60;;;;;;;15.09;63.87;99175.84;1747678;82;20937;-42
2022/05/27 03:44:57;;;;;;;2.17;1.40;;;;;;;15.08;64.01;99176.43;1749045;82;20941;-42
2022/05/27 03:47:24;;;;;;;3.22;1.60;;;;;;;15.07;63.97;99181.69;1747741;82;20925;-42
2022/05/27 03:49:50;;;;;;;3.85;1.77;;;;;;;15.04;63.86;99181.12;1748697;82;21006;-42
2022/05/27 03:52:20;;;;;;;3.17;1.50;;;;;;;15.03;64.04;99182.29;1748703;82;21254;-42
2022/05/27 03:54:47;;;;;;;4.55;1.60;;;;;;;15.03;64.12;99186.38;1721645;82;20980;-42
2022/05/27 03:57:14;;;;;;;1.67;1.30;;;;;;;15.10;64.12;99180.14;1748735;82;20917;-42
2022/05/27 03:59:41;;;;;;;2.17;1.40;;;;;;;15.13;64.05;99184.22;1748517;82;21088;-42
2022/05/27 04:02:07;;;;;;;5.25;1.57;;;;;;;15.14;64.04;99173.50;1748517;82;21084;-42
2022/05/27 04:04:34;;;;;;;4.10;1.55;;;;;;;15.14;63.82;99173.50;1748599;82;21231;-42
2022/05/27 04:07:01;;;;;;;2.17;1.47;;;;;;;15.12;63.78;99184.61;1748390;82;21035;-42
2022/05/27 04:09:28;;;;;;;2.45;1.47;;;;;;;14.90;63.78;99148.98;1748519;82;21043;-42
2022/05/27 04:11:55;;;;;;;4.30;1.42;;;;;;;15.11;63.88;99177.58;1748538;82;21029;-42
2022/05/27 04:14:23;;;;;;;1.70;1.15;;;;;;;15.13;64.01;99186.17;1748613;82;20977;-42
2022/05/27 04:16:50;;;;;;;5.75;1.55;;;;;;;15.16;63.88;99179.33;1748441;82;23139;-42
2022/05/27 04:19:17;;;;;;;1.98;1.27;;;;;;;15.21;64.08;99177.56;1748438;82;21518;-42
2022/05/27 04:21:44;;;;;;;2.27;1.40;;;;;;;15.22;63.94;99183.22;1748438;82;20933;-42
2022/05/27 04:24:10;;;;;;;4.28;1.35;;;;;;;15.24;63.72;99186.93;1748483;82;21048;-42
2022/05/27 04:26:37;;;;;;;3.52;1.67;;;;;;;15.25;63.65;99184.98;1748594;82;21065;-42
2022/05/27 04:29:05;;;;;;;3.47;1.22;;;;;;;15.25;63.47;99192.56;1748364;82;21147;-42
2022/05/27 04:31:33;;;;;;;2.92;1.47;;;;;;;15.29;63.69;99192.58;1748227;82;21012;-42
2022/05/27 04:33:59;;;;;;;4.53;1.60;;;;;;;15.35;63.29;99193.70;1748418;82;21590;-42
2022/05/27 04:36:26;;;;;;;3.92;1.60;;;;;;;15.46;63.10;99193.09;1748700;82;21032;-42
2022/05/27 04:38:53;;;;;;;3.37;1.60;;;;;;;15.54;62.91;99201.50;1748424;82;21472;-42
2022/05/27 04:41:23;;;;;;;1.62;1.22;;;;;;;15.55;62.39;99202.45;1738234;81;21228;-42
2022/05/27 04:43:50;;;;;;;3.72;1.22;;;;;;;15.57;62.62;99188.41;1734455;81;20965;-42
2022/05/27 04:46:16;;;;;;;3.50;1.47;;;;;;;15.58;61.85;99179.04;1734534;82;20977;-42
2022/05/27 04:48:44;;;;;;;5.55;1.80;;;;;;;15.59;62.18;99188.77;1734385;82;21536;-42
2022/05/27 04:51:11;;;;;;;3.35;1.40;;;;;;;15.60;61.85;99187.59;1734446;82;21072;-42
2022/05/27 04:53:38;;;;;;;3.33;1.60;;;;;;;15.60;62.01;99187.02;1734416;82;21215;-42
2022/05/27 04:56:10;;;;;;;2.95;1.27;;;;;;;15.63;62.12;99205.38;1734418;82;20930;-42
2022/05/27 04:58:37;;;;;;;5.37;1.30;;;;;;;15.65;61.70;99196.75;1734475;82;21065;-42
2022/05/27 05:01:04;;;;;;;3.15;1.20;;;;;;;15.63;61.53;99195.80;1734721;82;20966;-42
2022/05/27 05:03:32;;;;;;;2.55;1.22;;;;;;;15.60;61.87;99193.84;1734632;82;21524;-42
2022/05/27 05:05:58;;;;;;;2.12;1.47;;;;;;;15.60;61.83;99194.44;1734784;82;21772;-42
2022/05/27 05:08:37;;;;;;;2.10;1.32;;;;;;;15.59;61.49;99199.11;1734596;82;20986;-42
2022/05/27 05:11:03;;;;;;;1.85;1.40;;;;;;;15.59;61.51;99202.43;1734486;81;21516;-42
2022/05/27 05:13:31;;;;;;;2.62;1.62;;;;;;;15.56;61.43;99204.02;1735011;82;20990;-42
2022/05/27 05:15:58;;;;;;;3.67;1.35;;;;;;;15.54;60.80;99198.16;1734721;82;21065;-42
2022/05/27 05:18:27;;;;;;;4.85;1.52;;;;;;;15.53;60.71;99196.62;1734624;82;21230;-42
2022/05/27 05:20:53;;;;;;;2.52;1.40;;;;;;;15.53;60.89;99197.98;1734547;82;21607;-42
2022/05/27 05:23:20;;;;;;;4.67;1.55;;;;;;;15.56;60.79;99204.60;1734512;82;21022;-42
2022/05/27 05:25:47;;;;;;;3.98;1.40;;;;;;;15.65;60.64;99198.13;1734380;82;21104;-42
2022/05/27 05:28:14;;;;;;;5.53;1.75;;;;;;;15.69;60.22;99195.36;1734637;82;21540;-42
2022/05/27 05:30:40;;;;;;;3.55;1.70;;;;;;;15.73;60.43;99192.05;1734788;82;21444;-42
2022/05/27 05:33:07;;;;;;;2.72;1.50;;;;;;;15.79;60.04;99188.48;1734516;82;20903;-42
2022/05/27 05:35:34;;;;;;;7.55;1.60;;;;;;;15.85;59.54;99181.44;1734341;82;20982;-42
2022/05/27 05:38:02;;;;;;;3.72;1.82;;;;;;;15.87;59.65;99183.20;1734263;82;20973;-42
2022/05/27 05:40:28;;;;;;;2.72;1.87;;;;;;;15.89;59.59;99189.61;1734480;81;20986;-42
2022/05/27 05:42:55;;;;;;;2.83;1.60;;;;;;;15.91;59.13;99198.98;1734359;82;23190;-42
2022/05/27 05:45:23;;;;;;;4.37;1.62;;;;;;;15.95;59.65;99183.92;1734289;82;20974;-42
2022/05/27 05:47:50;;;;;;;4.75;1.50;;;;;;;15.99;58.73;99177.25;1734326;82;21033;-42
2022/05/27 05:50:18;;;;;;;4.67;1.50;;;;;;;16.04;58.54;99184.26;1734222;82;21077;-43
2022/05/27 05:52:45;;;;;;;3.55;1.40;;;;;;;16.10;58.63;99179.92;1734492;82;21037;-42
2022/05/27 05:55:13;;;;;;;4.85;1.30;;;;;;;16.18;58.41;99175.96;1711403;82;21234;-42
2022/05/27 05:57:42;;;;;;;4.08;1.72;;;;;;;16.27;59.06;99183.13;1705142;84;20961;-42
2022/05/27 06:00:12;;;;;;;2.40;1.40;;;;;;;16.36;58.41;99179.95;1705064;84;21083;-42
2022/05/27 06:02:39;;;;;;;2.52;1.50;;;;;;;16.45;58.88;99175.59;1705278;84;21487;-42
2022/05/27 06:05:08;;;;;;;4.22;1.70;;;;;;;16.53;57.91;99172.97;1704856;84;21089;-42
2022/05/27 06:07:36;;;;;;;4.72;1.72;;;;;;;16.62;58.00;99173.89;1705223;84;21109;-42
2022/05/27 06:10:04;;;;;;;3.35;1.50;;;;;;;16.65;57.70;99170.95;1704961;84;21021;-42
2022/05/27 06:12:33;;;;;;;6.08;1.70;;;;;;;16.69;57.63;99169.74;1705052;84;21060;-42
2022/05/27 06:15:00;;;;;;;4.90;1.70;;;;;;;16.74;57.34;99177.52;1705164;84;21069;-43
2022/05/27 06:17:27;;;;;;;5.00;1.40;;;;;;;16.85;57.66;99173.29;1704945;84;21371;-42
2022/05/27 06:19:54;;;;;;;3.90;1.57;;;;;;;16.96;56.95;99172.61;1705258;84;21202;-42
2022/05/27 06:22:20;;;;;;;6.50;1.60;;;;;;;17.05;57.33;99170.16;1705419;84;21504;-43
2022/05/27 06:24:47;;;;;;;3.35;1.35;;;;;;;17.13;57.57;99160.70;1705111;84;20961;-42
2022/05/27 06:27:15;;;;;;;3.35;1.30;;;;;;;17.20;56.35;99163.35;1705206;84;21559;-41
2022/05/27 06:35:12;;;;;;;2.33;1.45;;;;;;;17.27;54.52;99157.03;1705176;84;21572;-42
2022/05/27 06:37:39;;;;;;;5.65;1.35;;;;;;;17.30;54.84;99149.34;1705138;84;21021;-42
2022/05/27 06:40:07;;;;;;;4.00;1.62;;;;;;;17.33;52.93;99141.70;1704753;84;20985;-42
2022/05/27 06:42:37;;;;;;;3.95;1.40;;;;;;;17.35;53.68;99142.83;1702744;83;21076;-42
2022/05/27 06:45:06;;;;;;;9.68;1.82;;;;;;;17.39;54.01;99145.52;1678674;85;21540;-42
2022/05/27 06:47:33;;;;;;;3.87;1.50;;;;;;;17.46;53.90;99149.55;1713302;83;21013;-42
2022/05/27 06:50:00;;;;;;;5.90;1.65;;;;;;;17.55;52.25;99142.98;1678372;85;21108;-42
2022/05/27 06:52:27;;;;;;;2.70;1.50;;;;;;;17.61;52.51;99144.11;1678560;85;20992;-42
2022/05/27 06:56:07;;;;;;;5.37;1.67;;;;;;;17.80;50.98;99133.08;1779421;79;22658;-41
2022/05/27 06:58:34;;;;;;;2.92;1.07;;;;;;;17.77;49.55;99136.05;1738736;82;20970;-41
2022/05/27 07:01:01;;;;;;;3.58;1.30;;;;;;;17.87;48.71;99134.93;1738651;82;21141;-41
2022/05/27 07:03:28;;;;;;;5.50;1.47;;;;;;;17.97;48.58;99129.30;1738618;82;20970;-41
2022/05/27 07:05:54;;;;;;;4.20;1.10;;;;;;;18.11;44.36;99135.94;1738833;82;20970;-41
2022/05/27 07:08:22;;;;;;;4.58;1.10;;;;;;;18.20;44.16;99129.95;1738679;82;20966;-41
2022/05/27 07:10:49;;;;;;;4.70;1.30;;;;;;;18.29;44.39;99130.20;1738685;82;20958;-41
2022/05/27 07:13:18;;;;;;;3.27;1.22;;;;;;;18.37;43.67;99106.92;1738665;82;21139;-41
2022/05/27 07:15:45;;;;;;;2.12;1.02;;;;;;;18.44;43.98;99110.16;1738754;82;20974;-41
2022/05/27 07:18:12;;;;;;;3.22;1.30;;;;;;;18.49;43.39;99106.31;1754153;80;21008;-42
2022/05/27 07:20:40;;;;;;;1.87;1.12;;;;;;;18.54;43.02;99103.12;1762520;80;21084;-41
2022/05/27 07:23:08;;;;;;;3.55;1.25;;;;;;;18.61;44.06;99115.36;1723179;83;21088;-41
2022/05/27 07:25:35;;;;;;;6.35;1.47;;;;;;;18.71;43.34;99100.48;1722706;83;21724;-41
2022/05/27 07:28:06;;;;;;;2.83;1.25;;;;;;;18.78;41.76;99101.15;1722663;83;20952;-41
2022/05/27 07:30:34;;;;;;;3.75;1.22;;;;;;;18.87;43.38;99086.85;1723087;83;21017;-41
2022/05/27 07:33:01;;;;;;;3.45;1.15;;;;;;;18.97;43.53;99102.36;1719959;83;21011;-41
2022/05/27 07:35:28;;;;;;;3.40;1.30;;;;;;;19.14;43.22;99102.60;1714285;83;21111;-41
2022/05/27 07:37:54;;;;;;;3.75;1.32;;;;;;;19.32;42.93;99110.48;1740160;82;21244;-41
2022/05/27 07:40:21;;;;;;;4.47;1.20;;;;;;;19.46;42.88;99108.23;1729547;82;21507;-42
2022/05/27 07:42:48;;;;;;;3.72;1.30;;;;;;;19.57;41.94;99108.61;1738215;82;20949;-41
2022/05/27 07:45:17;;;;;;;5.30;1.32;;;;;;;19.57;42.29;99106.64;1726013;82;21048;-41
2022/05/27 07:47:45;;;;;;;4.17;1.10;;;;;;;19.59;40.61;99108.97;1746645;82;21028;-41
2022/05/27 07:50:13;;;;;;;2.87;1.42;;;;;;;19.60;41.33;99102.28;1733835;82;21120;-42
2022/05/27 07:52:42;;;;;;;3.00;1.10;;;;;;;19.68;41.73;99099.54;1740341;82;21013;-42
2022/05/27 07:55:09;;;;;;;5.97;1.40;;;;;;;19.79;41.05;99098.11;1715893;83;20934;-42
2022/05/27 07:57:46;;;;;;;3.62;1.47;;;;;;;19.93;41.04;99094.25;1707692;84;20972;-42
2022/05/27 08:00:20;;;;;;;3.22;1.37;;;;;;;20.05;40.35;99095.54;1707784;84;21033;-42
2022/05/27 08:02:47;;;;;;;3.47;1.52;;;;;;;20.11;40.77;99084.97;1743833;81;21204;-42
2022/05/27 08:05:17;;;;;;;5.75;1.52;;;;;;;20.11;39.79;99086.34;1707360;83;20965;-42
2022/05/27 08:07:44;;;;;;;2.20;1.10;;;;;;;20.14;40.64;99086.11;1742839;82;21017;-42
2022/05/27 08:10:13;;;;;;;4.12;1.15;;;;;;;20.20;40.73;99081.61;1706889;84;20949;-42
2022/05/27 08:12:40;;;;;;;4.22;1.20;;;;;;;20.28;40.61;99087.13;1683560;84;21558;-42
2022/05/27 08:15:08;;;;;;;6.95;1.55;;;;;;;20.32;39.69;99075.45;1678492;85;22187;-42
2022/05/27 08:17:37;;;;;;;2.17;1.30;;;;;;;20.33;40.11;99075.00;1678704;85;20933;-42
2022/05/27 08:20:05;;;;;;;9.00;1.65;;;;;;;20.37;39.67;99075.71;1734170;81;21006;-42
2022/05/27 08:22:32;;;;;;;5.65;1.42;;;;;;;20.46;40.48;99066.05;1707333;83;20968;-42
2022/05/27 08:24:59;;;;;;;4.03;1.30;;;;;;;20.55;39.08;99071.11;1742764;82;21045;-42
2022/05/27 08:27:26;;;;;;;4.80;1.75;;;;;;;20.61;39.05;99075.50;1742529;81;21127;-42
2022/05/27 08:29:52;;;;;;;2.52;1.30;;;;;;;20.56;38.90;99069.14;1704196;83;21463;-42
2022/05/27 08:32:19;;;;;;;9.33;1.80;;;;;;;20.57;39.54;99073.45;1698132;84;21049;-42
2022/05/27 08:40:25;;;;;;;3.52;1.40;;;;;;;20.91;39.18;99055.79;1683010;84;23139;-42
2022/05/27 08:43:12;;;;;;;4.83;1.67;;;;;;;20.99;39.08;99061.87;1720375;83;21605;-42
2022/05/27 08:45:53;;;;;;;3.20;1.50;;;;;;;20.97;39.72;99068.41;1732259;82;20945;-42
2022/05/27 08:48:20;;;;;;;2.08;1.42;;;;;;;21.03;39.00;99067.45;1722546;83;21017;-42
2022/05/27 08:50:56;;;;;;;3.55;1.52;;;;;;;21.11;38.91;99059.13;1732473;82;21025;-42
2022/05/27 08:53:45;;;;;;;5.50;1.52;;;;;;;21.17;39.05;99070.42;1718275;83;21073;-42
2022/05/27 08:59:26;;;;;;;7.25;1.62;;;;;;;21.12;38.39;99071.71;1676759;83;21053;-42
2022/05/27 09:02:11;;;;;;;2.87;1.75;;;;;;;21.02;39.19;99061.76;1719842;83;21011;-42
2022/05/27 09:05:15;;;;;;;7.50;1.47;;;;;;;21.08;39.56;99053.73;1719873;83;21752;-44
2022/05/27 09:08:01;;;;;;;5.10;1.75;;;;;;;21.20;38.18;99064.80;1711230;83;21217;-43
2022/05/27 09:10:51;;;;;;;5.67;1.80;;;;;;;21.22;38.95;99063.00;1719723;83;21020;-44
2022/05/27 09:13:43;;;;;;;9.53;1.87;;;;;;;21.30;40.22;99053.92;1719563;83;21031;-42
2022/05/27 09:16:19;;;;;;;4.00;1.70;;;;;;;21.43;38.57;99052.73;1719368;83;20972;-41
2022/05/27 09:19:05;;;;;;;4.17;1.40;;;;;;;21.49;38.84;99065.37;1716979;83;21036;-41
2022/05/27 09:21:51;;;;;;;7.15;1.80;;;;;;;21.40;37.97;99055.56;1719938;83;21019;-41
2022/05/27 09:24:44;;;;;;;4.80;1.37;;;;;;;21.20;38.10;99048.27;1719398;83;21008;-42
2022/05/27 09:27:28;;;;;;;2.50;1.30;;;;;;;21.13;39.25;99059.52;1720210;83;21075;-42
2022/05/27 09:30:12;;;;;;;2.60;1.10;;;;;;;21.14;38.94;99052.79;1720307;83;21502;-42
2022/05/27 09:33:02;;;;;;;2.10;1.20;;;;;;;21.15;37.73;99047.45;1720541;83;21021;-42
2022/05/27 09:35:42;;;;;;;4.25;1.40;;;;;;;21.12;37.94;99052.41;1720376;83;21140;-42
2022/05/27 09:38:24;;;;;;;3.58;1.90;;;;;;;21.06;39.06;99045.89;1720313;83;20937;-42
2022/05/27 09:40:57;;;;;;;4.60;1.75;;;;;;;21.03;39.68;99038.50;1720468;83;21023;-41
2022/05/27 09:43:45;;;;;;;5.72;1.30;;;;;;;20.89;39.01;99034.77;1720586;83;21011;-42
2022/05/27 09:46:15;;;;;;;4.33;1.70;;;;;;;20.89;39.33;99032.02;1720553;83;21079;-42
2022/05/27 09:48:42;;;;;;;2.83;1.60;;;;;;;20.98;38.90;99030.00;1715443;83;21213;-42
2022/05/27 09:51:09;;;;;;;5.12;1.70;;;;;;;21.16;39.33;99031.05;1720299;83;21027;-42
2022/05/27 09:53:42;;;;;;;3.50;1.80;;;;;;;21.36;39.01;99014.92;1720373;83;21068;-41
2022/05/27 09:56:12;;;;;;;7.62;1.75;;;;;;;21.55;38.14;99018.08;1717072;83;21507;-42
2022/05/27 09:58:42;;;;;;;5.17;1.67;;;;;;;21.75;37.26;99016.47;1715131;83;21084;-42
2022/05/27 10:01:27;;;;;;;3.25;1.40;;;;;;;21.79;38.02;99005.48;1714735;83;20930;-42
2022/05/27 10:04:06;;;;;;;4.53;1.62;;;;;;;21.86;37.47;99002.50;1714978;83;20894;-42
2022/05/27 10:06:34;;;;;;;2.10;1.20;;;;;;;21.96;37.70;98998.66;1714791;83;20981;-42
2022/05/27 10:09:08;;;;;;;3.80;1.42;;;;;;;22.03;35.61;98990.73;1715082;83;21039;-42
2022/05/27 10:11:49;;;;;;;3.50;1.45;;;;;;;21.95;36.15;98993.57;1714808;83;21032;-41
2022/05/27 10:14:32;;;;;;;3.65;1.70;;;;;;;21.92;37.49;98992.45;1715070;83;21093;-42
2022/05/27 10:17:09;;;;;;;3.37;1.60;;;;;;;21.96;38.13;98983.47;1714056;83;21593;-42
2022/05/27 10:19:42;;;;;;;2.37;1.47;;;;;;;22.03;37.55;98976.32;1715123;83;21534;-41
2022/05/27 10:22:23;;;;;;;6.50;2.15;;;;;;;22.10;37.69;98978.85;1714461;83;21028;-42
2022/05/27 10:25:02;;;;;;;4.15;1.50;;;;;;;22.14;37.44;98977.34;1714284;83;21079;-42
2022/05/27 10:27:39;;;;;;;1.82;1.32;;;;;;;22.15;37.61;98983.03;1714766;83;21219;-42
2022/05/27 10:30:12;;;;;;;6.50;1.90;;;;;;;22.07;37.67;98982.48;1715118;83;20953;-42
2022/05/27 10:32:42;;;;;;;8.23;1.80;;;;;;;21.99;38.05;98983.95;1687087;83;20960;-42
2022/05/27 10:35:30;;;;;;;3.98;2.00;;;;;;;21.92;37.91;98977.88;1715063;83;21091;-42
2022/05/27 10:38:25;;;;;;;2.60;1.57;;;;;;;21.86;38.28;98967.23;1714914;83;21606;-42
2022/05/27 10:41:14;;;;;;;3.30;1.70;;;;;;;21.90;38.44;98967.28;1715009;83;21305;-42
2022/05/27 10:44:36;;;;;;;4.85;2.10;;;;;;;22.02;38.21;98953.32;1699373;81;21083;-42
2022/05/27 10:47:10;;;;;;;3.92;2.12;;;;;;;22.09;37.87;98964.87;1739002;82;21003;-42
2022/05/27 10:50:04;;;;;;;7.08;1.90;;;;;;;21.96;38.40;98962.77;1698291;82;21758;-42
2022/05/27 10:52:47;;;;;;;2.83;1.70;;;;;;;21.90;37.74;98956.23;1720884;83;20997;-42
2022/05/27 10:55:24;;;;;;;8.00;1.67;;;;;;;21.90;38.03;98960.38;1720851;82;21255;-43
2022/05/27 11:04:07;;;;;;;2.67;1.50;;;;;;;22.03;37.50;98945.18;1769857;81;21408;-42
2022/05/27 11:07:06;;;;;;;3.35;1.72;;;;;;;21.95;38.40;98941.91;1718397;83;21048;-42
2022/05/27 11:10:12;;;;;;;2.65;1.62;;;;;;;21.90;38.79;98944.42;1717213;83;20977;-44
2022/05/27 11:16:37;;;;;;;3.33;1.60;;;;;;;22.10;37.65;98928.38;1661725;83;20992;-42
2022/05/27 11:19:27;;;;;;;2.95;1.80;;;;;;;22.24;37.63;98927.11;1690850;84;21055;-41
2022/05/27 11:22:27;;;;;;;4.80;1.90;;;;;;;22.23;38.22;98922.80;1675117;84;21065;-42
2022/05/27 11:25:05;;;;;;;2.65;1.47;;;;;;;22.10;37.51;98918.72;1691267;84;21091;-41
2022/05/27 11:28:11;;;;;;;2.12;1.40;;;;;;;22.06;37.97;98913.94;1690760;84;21043;-41
2022/05/27 11:30:58;;;;;;;2.87;1.47;;;;;;;22.03;38.23;98917.58;1690336;84;21071;-41
2022/05/27 11:33:46;;;;;;;2.65;1.45;;;;;;;21.98;38.39;98902.36;1710165;83;21041;-41
2022/05/27 11:36:44;;;;;;;3.40;1.50;;;;;;;21.95;38.66;98893.59;1720047;83;21019;-41
2022/05/27 11:39:39;;;;;;;2.40;1.35;;;;;;;21.92;38.13;98888.18;1719444;83;23151;-41
2022/05/27 11:42:18;;;;;;;6.05;1.50;;;;;;;21.82;38.94;98901.13;1719942;83;21080;-41
2022/05/27 11:45:08;;;;;;;4.30;1.90;;;;;;;21.73;39.20;98895.53;1720309;83;21028;-41
2022/05/27 11:48:04;;;;;;;5.83;2.15;;;;;;;21.68;39.38;98901.61;1718267;83;21091;-41
2022/05/27 11:50:45;;;;;;;3.90;1.40;;;;;;;21.65;39.46;98888.08;1712109;83;21026;-42
2022/05/27 11:53:29;;;;;;;4.58;1.10;;;;;;;21.66;39.27;98883.34;1713810;83;21158;-42
2022/05/27 11:56:18;;;;;;;3.50;1.80;;;;;;;21.65;38.70;98882.56;1714440;83;21017;-42
2022/05/27 11:59:13;;;;;;;3.47;1.40;;;;;;;21.69;39.40;98878.30;1721756;83;21507;-43
2022/05/27 12:01:52;;;;;;;4.03;1.62;;;;;;;21.79;40.57;98877.17;1722713;83;21072;-42
2022/05/27 12:04:36;;;;;;;3.10;1.42;;;;;;;21.93;39.88;98869.03;1708659;83;21048;-43
2022/05/27 12:07:31;;;;;;;3.98;1.60;;;;;;;22.05;39.20;98869.00;1717645;83;21139;-42
2022/05/27 12:10:26;;;;;;;5.37;1.40;;;;;;;22.13;38.80;98868.13;1712144;83;21002;-42
2022/05/27 12:13:26;;;;;;;8.08;1.50;;;;;;;22.18;39.29;98857.87;1718897;83;21036;-42
2022/05/27 12:15:56;;;;;;;;;;;;;;;22.26;38.52;98852.28;1737549;82;20998;-42
2022/05/27 12:18:40;;;;;;;2.92;1.22;;;;;;;22.28;38.62;98850.43;1704261;84;20486;-42
2022/05/27 12:21:09;;;;;;;8.35;1.42;;;;;;;22.15;38.09;98851.11;1722527;83;21909;-42
2022/05/27 12:23:39;;;;;;;3.25;1.45;;;;;;;22.09;38.12;98837.11;1701483;83;20976;-42
2022/05/27 12:26:06;;;;;;;2.62;1.42;;;;;;;22.04;38.81;98839.84;1711691;83;20989;-42
2022/05/27 12:28:36;;;;;;;4.62;1.55;;;;;;;21.94;38.08;98825.81;1711423;83;21065;-42
2022/05/27 12:31:04;;;;;;;3.00;1.35;;;;;;;21.86;37.95;98830.62;1711460;83;21618;-42
2022/05/27 12:33:31;;;;;;;6.47;1.50;;;;;;;21.75;38.13;98828.84;1707143;83;21219;-42
2022/05/27 12:36:25;;;;;;;3.80;1.30;;;;;;;21.67;38.59;98824.97;1684205;83;20977;-42
2022/05/27 12:38:54;;;;;;;5.53;1.57;;;;;;;21.58;38.88;98821.36;1677387;84;21535;-42
2022/05/27 12:41:37;;;;;;;6.85;1.70;;;;;;;21.50;38.94;98822.80;1690618;84;20966;-42